Time;durP1;ratioP1;P1;durP2;ratioP2;P2;SDS_P1;SDS_P2;PMS_P1;PMS_P2;Temp;Humidity;BMP_temperature;BMP_pressure;BME280_temperature;BME280_humidity;BME280_pressure;Samples;Min_cycle;Max_cycle;Signal;HPM_P1;HPM_P2
2022/12/23 00:02:14;;;;;;;33.58;20.52;;;;;;;9.08;100.00;100279.72;5055291;28;20522;-56
2022/12/23 00:04:39;;;;;;;32.92;21.55;;;;;;;9.10;100.00;100281.41;5053308;28;20025;-53
2022/12/23 00:07:04;;;;;;;30.23;20.80;;;;;;;9.10;100.00;100281.41;5055366;28;20029;-52
2022/12/23 00:09:30;;;;;;;33.15;22.60;;;;;;;9.10;100.00;100282.25;5054912;28;20126;-53
2022/12/23 00:17:22;;;;;;;37.13;24.70;;;;;;;9.10;100.00;100299.97;5054313;28;20048;-55
2022/12/23 00:19:49;;;;;;;36.22;23.92;;;;;;;9.11;100.00;100299.84;5054887;28;20128;-55
2022/12/23 00:22:14;;;;;;;38.15;25.05;;;;;;;9.11;100.00;100296.34;5053918;28;20634;-55
2022/12/23 00:24:39;;;;;;;39.80;25.00;;;;;;;9.11;100.00;100296.34;5054995;28;20029;-52
2022/12/23 00:27:04;;;;;;;34.47;24.65;;;;;;;9.11;100.00;100304.28;5040893;28;20024;-53
2022/12/23 00:29:30;;;;;;;39.78;24.77;;;;;;;9.10;100.00;100297.31;5054142;28;20029;-54
2022/12/23 00:31:55;;;;;;;36.70;25.27;;;;;;;9.11;100.00;100297.19;5053867;28;20033;-54
2022/12/23 00:34:20;;;;;;;41.22;24.95;;;;;;;9.11;100.00;100306.94;5046530;28;20029;-55
2022/12/23 00:36:45;;;;;;;42.85;24.65;;;;;;;9.11;100.00;100309.56;5053532;28;20032;-51
2022/12/23 00:44:39;;;;;;;42.40;23.80;;;;;;;9.11;100.00;100318.38;5054913;28;20552;-52
2022/12/23 00:47:04;;;;;;;33.88;23.20;;;;;;;9.12;100.00;100322.69;5052347;28;20025;-52
2022/12/23 00:49:42;;;;;;;47.22;23.40;;;;;;;9.11;100.00;100326.34;5054505;28;20029;-55
2022/12/23 00:52:13;;;;;;;40.00;23.63;;;;;;;9.11;100.00;100330.78;5052119;28;20060;-55
2022/12/23 00:54:39;;;;;;;38.63;22.27;;;;;;;9.11;100.00;100333.41;5054128;28;20475;-54
2022/12/23 00:57:05;;;;;;;36.67;23.45;;;;;;;9.10;100.00;100342.34;5053737;28;20033;-56
2022/12/23 00:59:30;;;;;;;34.85;24.17;;;;;;;9.10;100.00;100337.06;5054084;28;20055;-53
2022/12/23 01:07:23;;;;;;;42.50;24.95;;;;;;;9.11;100.00;100351.97;5053235;28;20593;-55
2022/12/23 01:09:48;;;;;;;38.13;24.70;;;;;;;9.12;100.00;100351.00;5054166;28;20021;-53
2022/12/23 01:12:14;;;;;;;38.35;25.17;;;;;;;9.12;100.00;100348.38;5052260;28;20017;-52
2022/12/23 01:14:39;;;;;;;36.20;24.83;;;;;;;9.11;100.00;100354.63;5053857;28;20025;-56
2022/12/23 01:17:06;;;;;;;35.35;24.45;;;;;;;9.12;100.00;100358.97;5053860;28;20029;-54
2022/12/23 01:19:32;;;;;;;38.80;24.30;;;;;;;9.11;100.00;100350.19;5053859;28;20017;-56
2022/12/23 01:21:57;;;;;;;39.78;25.73;;;;;;;9.12;100.00;100353.66;5051445;28;20448;-56
2022/12/23 01:24:29;;;;;;;39.15;25.30;;;;;;;9.11;100.00;100347.53;5053371;28;20086;-56
2022/12/23 01:26:54;;;;;;;40.22;25.92;;;;;;;9.12;100.00;100351.00;5041441;28;20144;-56
2022/12/23 01:29:19;;;;;;;38.17;25.95;;;;;;;9.11;100.00;100350.19;5053448;28;20113;-56
2022/12/23 01:31:45;;;;;;;41.58;25.75;;;;;;;9.11;100.00;100358.13;5053533;28;20505;-54
2022/12/23 01:34:10;;;;;;;41.83;27.27;;;;;;;9.11;100.00;100359.91;5052607;28;20037;-56
2022/12/23 01:36:35;;;;;;;39.97;26.55;;;;;;;9.09;100.00;100362.69;5053504;28;20029;-55
2022/12/23 01:39:00;;;;;;;41.85;27.50;;;;;;;9.11;100.00;100360.78;5040123;28;20024;-53
2022/12/23 01:44:52;;;;;;;42.80;27.50;;;;;;;9.12;100.00;100356.31;5053416;28;20044;-54
2022/12/23 01:47:43;;;;;;;44.95;28.67;;;;;;;9.12;100.00;100365.09;5052930;28;20119;-53
2022/12/23 01:50:18;;;;;;;43.60;27.42;;;;;;;9.10;100.00;100371.50;5051940;28;20098;-54
2022/12/23 01:52:54;;;;;;;41.28;29.70;;;;;;;9.10;100.00;100371.50;5052614;28;20080;-52
2022/12/23 01:55:24;;;;;;;41.22;28.15;;;;;;;9.08;100.00;100368.97;5053037;28;20494;-55
2022/12/23 01:57:51;;;;;;;40.50;28.65;;;;;;;9.10;100.00;100384.75;5052657;28;20487;-52
2022/12/23 02:05:52;;;;;;;40.03;29.35;;;;;;;9.07;100.00;100391.09;5039621;28;20055;-52
2022/12/23 02:11:41;;;;;;;39.67;29.10;;;;;;;9.09;100.00;100394.47;5052124;28;20415;-53
2022/12/23 02:17:31;;;;;;;37.70;27.13;;;;;;;9.09;100.00;100394.47;5045646;28;20044;-53
2022/12/23 02:20:02;;;;;;;37.20;27.92;;;;;;;9.08;100.00;100390.16;5041978;28;20099;-53
2022/12/23 02:23:00;;;;;;;39.47;26.83;;;;;;;9.08;100.00;100392.81;5051658;28;20032;-52
2022/12/23 02:25:42;;;;;;;34.85;27.23;;;;;;;9.07;100.00;100391.09;5051337;28;20135;-53
2022/12/23 02:28:32;;;;;;;34.70;26.83;;;;;;;9.07;100.00;100402.53;5042325;28;20020;-55
2022/12/23 02:31:21;;;;;;;39.72;26.38;;;;;;;9.05;100.00;100401.81;5051084;28;20033;-55
2022/12/23 02:33:57;;;;;;;36.00;25.70;;;;;;;9.05;100.00;100409.75;5052276;28;20394;-55
2022/12/23 02:36:58;;;;;;;35.33;25.77;;;;;;;9.07;100.00;100417.59;5051674;28;20033;-51
2022/12/23 02:39:37;;;;;;;33.58;25.35;;;;;;;9.05;100.00;100428.31;5051270;28;20028;-55
2022/12/23 02:42:11;;;;;;;35.63;25.90;;;;;;;9.06;100.00;100434.47;5050975;28;20059;-54
2022/12/23 02:44:46;;;;;;;35.15;26.45;;;;;;;9.05;100.00;100441.56;5052592;28;20086;-52
2022/12/23 02:47:21;;;;;;;35.83;25.73;;;;;;;9.05;100.00;100452.16;5051439;28;20482;-54
2022/12/23 02:49:53;;;;;;;32.83;24.52;;;;;;;9.06;100.00;100445.06;5038725;28;20061;-52
2022/12/23 02:52:23;;;;;;;31.50;24.02;;;;;;;9.06;100.00;100453.84;5051582;28;20379;-52
2022/12/23 02:54:53;;;;;;;33.78;23.08;;;;;;;9.05;100.00;100462.75;5051867;28;20037;-52
2022/12/23 02:57:33;;;;;;;36.15;24.52;;;;;;;9.06;100.00;100463.63;5052305;28;20064;-53
2022/12/23 03:00:00;;;;;;;31.77;23.02;;;;;;;9.05;100.00;100457.44;5052083;28;20033;-56
2022/12/23 03:02:25;;;;;;;28.50;22.75;;;;;;;9.05;100.00;100449.50;5051983;28;20020;-54
2022/12/23 03:04:51;;;;;;;30.58;22.15;;;;;;;9.06;100.00;100453.84;5052246;28;20532;-55
2022/12/23 03:07:22;;;;;;;28.20;21.90;;;;;;;9.06;100.00;100458.31;5052357;28;20029;-56
2022/12/23 03:10:07;;;;;;;29.88;21.67;;;;;;;9.05;100.00;100459.25;5051208;28;20029;-54
2022/12/23 03:13:03;;;;;;;30.05;22.52;;;;;;;9.06;100.00;100472.41;5051924;28;20033;-55
2022/12/23 03:15:36;;;;;;;31.00;23.27;;;;;;;9.05;100.00;100462.75;5051671;28;20045;-54
2022/12/23 03:18:37;;;;;;;31.75;22.33;;;;;;;9.07;100.00;100462.63;5051028;28;20033;-55
2022/12/23 03:21:07;;;;;;;30.88;21.35;;;;;;;9.03;100.00;100459.38;5051629;28;20036;-55
2022/12/23 03:23:52;;;;;;;34.42;22.48;;;;;;;9.04;100.00;100455.78;5051231;28;20029;-54
2022/12/23 03:26:52;;;;;;;33.53;22.02;;;;;;;9.07;100.00;100454.69;5032064;28;20030;-55
2022/12/23 03:29:29;;;;;;;34.00;22.15;;;;;;;9.03;100.00;100455.91;5050554;28;20032;-55
2022/12/23 03:31:58;;;;;;;33.58;22.25;;;;;;;9.03;100.00;100451.44;5050751;28;20029;-54
2022/12/23 03:34:28;;;;;;;34.70;23.20;;;;;;;9.03;100.00;100447.94;5044981;28;20050;-55
2022/12/23 03:36:57;;;;;;;32.00;22.70;;;;;;;9.02;100.00;100449.72;5049172;28;20040;-56
2022/12/23 03:39:33;;;;;;;34.72;22.83;;;;;;;9.02;100.00;100451.53;5040012;28;20025;-53
2022/12/23 03:42:10;;;;;;;32.80;22.15;;;;;;;9.02;100.00;100459.50;5052502;28;20079;-51
2022/12/23 03:44:39;;;;;;;31.88;21.95;;;;;;;8.99;100.00;100455.28;5047169;28;20119;-55
2022/12/23 03:47:23;;;;;;;34.85;23.00;;;;;;;9.01;100.00;100448.06;5055475;28;20025;-55
2022/12/23 03:49:54;;;;;;;35.40;23.23;;;;;;;8.99;100.00;100450.00;5054445;28;20034;-52
2022/12/23 03:52:26;;;;;;;29.92;22.25;;;;;;;8.98;100.00;100453.59;5045419;28;20474;-54
2022/12/23 03:54:57;;;;;;;34.53;23.27;;;;;;;9.00;100.00;100464.06;5053081;28;20385;-53
2022/12/23 03:57:36;;;;;;;32.97;22.88;;;;;;;8.99;100.00;100457.06;5054754;28;20029;-55
2022/12/23 04:00:02;;;;;;;30.10;24.05;;;;;;;8.99;100.00;100460.59;5055162;28;20025;-53
2022/12/23 04:02:42;;;;;;;34.75;24.77;;;;;;;8.98;100.00;100461.53;5055074;28;20021;-53
2022/12/23 04:05:21;;;;;;;38.58;24.77;;;;;;;8.98;100.00;100468.66;5044152;28;20528;-53
2022/12/23 04:08:02;;;;;;;33.10;24.60;;;;;;;8.99;100.00;100465.88;5055243;28;20459;-51
2022/12/23 04:10:29;;;;;;;36.95;24.98;;;;;;;8.97;100.00;100467.78;5042208;28;20437;-52
2022/12/23 04:12:54;;;;;;;37.80;25.45;;;;;;;8.96;100.00;100474.06;5055361;28;20037;-54
2022/12/23 04:15:22;;;;;;;38.17;24.48;;;;;;;8.97;100.00;100469.59;5053721;28;20037;-55
2022/12/23 04:17:49;;;;;;;38.63;25.10;;;;;;;8.97;100.00;100481.03;5055126;28;20486;-52
2022/12/23 04:20:15;;;;;;;38.35;24.70;;;;;;;8.95;100.00;100480.31;5054236;28;20060;-53
2022/12/23 04:22:42;;;;;;;37.72;24.85;;;;;;;8.94;100.00;100486.56;5053875;28;20060;-54
2022/12/23 04:25:08;;;;;;;39.22;26.40;;;;;;;8.95;100.00;100485.59;5054616;28;20111;-53
2022/12/23 04:27:34;;;;;;;36.42;25.45;;;;;;;8.94;100.00;100491.84;5054741;28;20021;-56
2022/12/23 04:29:59;;;;;;;36.55;25.05;;;;;;;8.93;100.00;100498.13;5054635;28;20021;-55
2022/12/23 04:32:25;;;;;;;40.83;26.13;;;;;;;8.93;100.00;100499.94;5054276;28;20048;-56
2022/12/23 04:34:50;;;;;;;30.13;23.92;;;;;;;8.93;100.00;100503.44;5054199;28;20029;-56
2022/12/23 04:37:16;;;;;;;34.30;24.02;;;;;;;8.92;100.00;100508.84;5054745;28;20075;-56
2022/12/23 04:39:41;;;;;;;34.10;24.42;;;;;;;8.92;100.00;100508.84;5053964;28;20052;-56
2022/12/23 04:42:06;;;;;;;32.97;23.45;;;;;;;8.92;100.00;100492.94;5054630;28;20510;-56
2022/12/23 04:44:31;;;;;;;38.10;24.00;;;;;;;8.92;100.00;100496.44;5041288;28;20060;-55
2022/12/23 04:46:57;;;;;;;38.90;24.67;;;;;;;8.91;100.00;100500.06;5053632;28;20418;-54
2022/12/23 04:49:22;;;;;;;38.08;24.63;;;;;;;8.92;100.00;100490.28;5054435;28;20062;-55
2022/12/23 04:51:47;;;;;;;39.17;25.73;;;;;;;8.91;100.00;100485.94;5053873;28;20372;-55
2022/12/23 04:54:13;;;;;;;36.95;25.25;;;;;;;8.91;100.00;100486.81;5054170;28;20024;-56
2022/12/23 04:56:38;;;;;;;40.35;24.42;;;;;;;8.89;100.00;100478.13;5054434;28;20021;-56
2022/12/23 04:59:03;;;;;;;38.05;24.17;;;;;;;8.91;100.00;100484.16;5053410;28;20017;-53
2022/12/23 05:01:28;;;;;;;35.35;24.05;;;;;;;8.89;100.00;100471.03;5054894;28;20065;-55
2022/12/23 05:03:54;;;;;;;34.25;23.60;;;;;;;8.89;100.00;100473.69;5054237;28;20402;-50
2022/12/23 05:06:19;;;;;;;34.90;23.05;;;;;;;8.88;100.00;100464.03;5054244;28;20108;-51
2022/12/23 05:08:44;;;;;;;36.13;22.52;;;;;;;8.88;100.00;100471.97;5052698;28;20025;-51
2022/12/23 05:11:10;;;;;;;32.00;22.17;;;;;;;8.87;100.00;100472.94;5054193;28;20079;-52
2022/12/23 05:13:35;;;;;;;30.83;21.73;;;;;;;8.87;100.00;100480.03;5053792;28;20096;-52
2022/12/23 05:16:00;;;;;;;30.95;21.80;;;;;;;8.87;100.00;100477.38;5052941;28;20480;-52
2022/12/23 05:18:25;;;;;;;34.45;22.27;;;;;;;8.87;100.00;100485.34;5053567;28;20036;-54
2022/12/23 05:20:51;;;;;;;31.23;21.48;;;;;;;8.85;100.00;100496.03;5054039;28;20028;-54
2022/12/23 05:23:16;;;;;;;35.85;23.67;;;;;;;8.86;100.00;100502.22;5052951;28;20103;-51
2022/12/23 05:25:41;;;;;;;34.70;22.77;;;;;;;8.86;100.00;100503.03;5052614;28;20376;-51
2022/12/23 05:28:08;;;;;;;41.15;23.10;;;;;;;8.86;100.00;100510.16;5049594;28;20022;-52
2022/12/23 05:30:34;;;;;;;38.50;22.88;;;;;;;8.85;100.00;100527.81;5044253;28;20090;-52
2022/12/23 05:32:59;;;;;;;39.13;24.92;;;;;;;8.85;100.00;100527.00;5053452;28;20021;-51
2022/12/23 05:35:26;;;;;;;38.15;24.17;;;;;;;8.86;100.00;100528.69;5053015;28;20467;-52
2022/12/23 05:37:51;;;;;;;35.97;23.27;;;;;;;8.86;100.00;100536.63;5053715;28;20032;-55
2022/12/23 05:40:17;;;;;;;37.80;24.25;;;;;;;8.87;100.00;100530.34;5053712;28;20467;-51
2022/12/23 05:42:42;;;;;;;37.03;22.90;;;;;;;8.87;100.00;100533.84;5036698;28;20045;-51
2022/12/23 05:45:09;;;;;;;35.35;23.73;;;;;;;8.86;100.00;100534.81;5042782;28;20399;-52
2022/12/23 05:47:35;;;;;;;36.92;23.85;;;;;;;8.87;100.00;100538.31;5052976;28;20467;-52
2022/12/23 05:50:01;;;;;;;35.17;24.40;;;;;;;8.86;100.00;100531.34;5052722;28;20117;-52
2022/12/23 05:52:26;;;;;;;38.90;25.15;;;;;;;8.87;100.00;100533.84;5053386;28;20495;-51
2022/12/23 05:54:51;;;;;;;39.88;25.45;;;;;;;8.86;100.00;100516.28;5053165;28;20490;-52
2022/12/23 05:57:17;;;;;;;35.10;25.58;;;;;;;8.87;100.00;100520.59;5052855;28;20033;-54
2022/12/23 05:59:42;;;;;;;40.58;27.13;;;;;;;8.87;100.00;100506.53;5051738;28;20029;-55
2022/12/23 06:02:07;;;;;;;40.95;27.42;;;;;;;8.86;100.00;100502.22;5052950;28;20100;-54
2022/12/23 06:04:33;;;;;;;40.80;27.05;;;;;;;8.87;100.00;100498.59;5053176;28;20032;-55
2022/12/23 06:06:58;;;;;;;39.58;27.08;;;;;;;8.86;100.00;100499.56;5051939;28;20381;-53
2022/12/23 06:09:23;;;;;;;48.58;30.88;;;;;;;8.87;100.00;100498.59;5053008;28;20577;-52
2022/12/23 06:11:49;;;;;;;43.45;29.30;;;;;;;8.85;100.00;100493.41;5051913;28;20029;-53
2022/12/23 06:14:14;;;;;;;45.80;30.52;;;;;;;8.86;100.00;100491.63;5052878;28;20056;-54
2022/12/23 06:16:39;;;;;;;42.92;30.63;;;;;;;8.85;100.00;100492.56;5052479;28;20053;-53
2022/12/23 06:19:05;;;;;;;45.22;31.50;;;;;;;8.85;100.00;100487.25;5052719;28;20383;-54
2022/12/23 06:21:30;;;;;;;51.42;31.40;;;;;;;8.84;100.00;100483.78;5052432;28;20025;-53
2022/12/23 06:23:56;;;;;;;47.40;31.50;;;;;;;8.84;100.00;100481.13;5051950;28;20033;-53
2022/12/23 06:26:21;;;;;;;49.28;31.80;;;;;;;8.84;100.00;100474.97;5052432;28;20025;-53
2022/12/23 06:28:47;;;;;;;45.40;32.17;;;;;;;8.83;100.00;100484.72;5052234;28;20037;-55
2022/12/23 06:31:12;;;;;;;47.55;32.28;;;;;;;8.83;100.00;100489.19;5050904;28;20113;-55
2022/12/23 06:33:37;;;;;;;46.60;32.25;;;;;;;8.84;100.00;100496.16;5042521;28;20486;-52
2022/12/23 06:36:03;;;;;;;47.35;31.63;;;;;;;8.84;100.00;100496.16;5052472;28;20021;-52
2022/12/23 06:38:28;;;;;;;45.00;31.75;;;;;;;8.82;100.00;100500.72;5052579;28;20036;-52
2022/12/23 06:40:54;;;;;;;50.53;32.65;;;;;;;8.83;100.00;100499.78;5052454;28;20029;-56
2022/12/23 06:43:19;;;;;;;48.25;33.13;;;;;;;8.81;100.00;100494.59;5051922;28;20040;-55
2022/12/23 06:45:46;;;;;;;48.53;31.75;;;;;;;8.83;100.00;100505.06;5052019;28;20475;-56
2022/12/23 06:48:12;;;;;;;50.22;34.17;;;;;;;8.81;100.00;100506.97;5043753;28;20055;-55
2022/12/23 06:50:37;;;;;;;49.47;33.80;;;;;;;8.81;100.00;100517.56;5041954;28;20026;-55
2022/12/23 06:53:03;;;;;;;48.83;34.47;;;;;;;8.81;100.00;100517.56;5040084;28;20037;-55
2022/12/23 06:55:29;;;;;;;56.53;35.35;;;;;;;8.81;100.00;100520.22;5036022;28;20030;-56
2022/12/23 06:57:54;;;;;;;48.53;33.40;;;;;;;8.82;100.00;100532.50;5037908;28;20498;-55
2022/12/23 07:00:20;;;;;;;54.13;35.28;;;;;;;8.82;100.00;100551.03;5042830;28;20501;-53
2022/12/23 07:02:45;;;;;;;53.25;34.83;;;;;;;8.82;100.00;100553.69;5049064;28;20025;-55
2022/12/23 07:05:10;;;;;;;52.42;35.78;;;;;;;8.81;100.00;100560.81;5049278;28;20028;-56
2022/12/23 07:07:35;;;;;;;51.40;35.00;;;;;;;8.82;100.00;100574.88;5045780;28;20033;-53
2022/12/23 07:10:01;;;;;;;55.72;35.17;;;;;;;8.81;100.00;100574.03;5040988;28;20040;-55
2022/12/23 07:12:26;;;;;;;57.45;35.53;;;;;;;8.80;100.00;100564.41;5048562;28;20056;-55
2022/12/23 07:14:51;;;;;;;60.00;35.95;;;;;;;8.80;100.00;100555.63;5053577;28;21050;-54
2022/12/23 07:17:17;;;;;;;52.88;34.80;;;;;;;8.79;100.00;100541.53;5050411;28;20037;-55
2022/12/23 07:19:42;;;;;;;47.70;34.00;;;;;;;8.80;100.00;100539.72;5048243;28;20052;-55
2022/12/23 07:22:09;;;;;;;56.60;35.35;;;;;;;8.80;100.00;100537.09;5050918;28;20041;-52
2022/12/23 07:24:34;;;;;;;51.78;34.47;;;;;;;8.76;100.00;100539.13;5052274;28;20025;-56
2022/12/23 07:27:00;;;;;;;52.92;34.33;;;;;;;8.78;100.00;100537.19;5049461;28;20101;-55
2022/12/23 07:29:25;;;;;;;58.25;35.90;;;;;;;8.79;100.00;100538.91;5049766;28;20021;-55
2022/12/23 07:31:51;;;;;;;56.63;35.08;;;;;;;8.78;100.00;100553.09;5051349;28;20072;-55
2022/12/23 07:34:17;;;;;;;56.03;33.95;;;;;;;8.79;100.00;100544.19;5049269;28;20052;-52
2022/12/23 07:36:42;;;;;;;56.45;34.78;;;;;;;8.78;100.00;100542.50;5044772;28;20556;-55
2022/12/23 07:39:07;;;;;;;61.50;36.40;;;;;;;8.78;100.00;100534.53;5053553;28;20037;-55
2022/12/23 07:41:33;;;;;;;60.30;36.10;;;;;;;8.78;100.00;100533.72;5051422;28;20414;-52
2022/12/23 07:43:58;;;;;;;55.80;35.60;;;;;;;8.77;100.00;100532.84;5051188;28;20120;-53
2022/12/23 07:46:23;;;;;;;58.72;35.70;;;;;;;8.77;100.00;100524.91;5050719;28;20098;-51
2022/12/23 07:48:48;;;;;;;53.78;35.30;;;;;;;8.77;100.00;100534.66;5053855;28;20090;-52
2022/12/23 07:51:14;;;;;;;60.00;37.05;;;;;;;8.76;100.00;100525.88;5044082;28;20037;-52
2022/12/23 07:53:39;;;;;;;61.72;36.35;;;;;;;8.76;100.00;100538.25;5049402;28;20028;-55
2022/12/23 07:56:05;;;;;;;62.72;36.05;;;;;;;8.74;100.00;100542.81;5047969;28;20033;-55
2022/12/23 07:58:30;;;;;;;61.85;35.72;;;;;;;8.73;100.00;100522.59;5047669;28;20021;-54
2022/12/23 08:01:06;;;;;;;59.80;36.05;;;;;;;8.73;100.00;100530.53;5050742;28;20049;-54
2022/12/23 08:03:32;;;;;;;55.42;33.65;;;;;;;8.72;100.00;100539.44;5050101;28;20108;-54
2022/12/23 08:06:06;;;;;;;70.78;34.15;;;;;;;8.72;100.00;100534.16;5050900;28;20119;-52
2022/12/23 08:08:32;;;;;;;56.30;32.78;;;;;;;8.71;100.00;100525.38;5047932;28;20039;-55
2022/12/23 08:11:03;;;;;;;51.88;30.40;;;;;;;8.70;100.00;100507.78;5049352;28;20156;-52
2022/12/23 08:13:30;;;;;;;48.40;30.35;;;;;;;8.69;100.00;100522.84;5049025;28;20037;-51
2022/12/23 08:15:57;;;;;;;51.45;30.95;;;;;;;8.68;100.00;100512.34;5048689;28;20041;-54
2022/12/23 08:18:23;;;;;;;51.40;30.05;;;;;;;8.69;100.00;100508.72;5063252;28;20028;-50
2022/12/23 08:21:03;;;;;;;52.17;30.48;;;;;;;8.69;100.00;100509.59;5034909;28;20056;-54
2022/12/23 08:23:30;;;;;;;50.47;29.35;;;;;;;8.68;100.00;100533.53;5043130;28;20033;-56
2022/12/23 08:26:03;;;;;;;50.78;26.25;;;;;;;8.67;100.00;100529.19;5036077;28;20479;-55
2022/12/23 08:28:30;;;;;;;43.80;27.33;;;;;;;8.67;100.00;100521.25;5049372;28;20417;-52
2022/12/23 08:31:05;;;;;;;47.13;27.15;;;;;;;8.68;100.00;100531.72;5043921;28;20379;-54
2022/12/23 08:33:30;;;;;;;48.78;26.02;;;;;;;8.68;100.00;100523.78;5036553;28;20424;-61
2022/12/23 08:35:55;;;;;;;41.88;26.48;;;;;;;8.67;100.00;100534.47;5044497;28;20068;-53
2022/12/23 08:38:21;;;;;;;45.60;25.80;;;;;;;8.67;100.00;100523.91;5050156;28;20060;-55
2022/12/23 08:40:46;;;;;;;40.20;24.77;;;;;;;8.68;100.00;100515.00;5052327;28;20025;-56
2022/12/23 08:43:12;;;;;;;42.88;24.58;;;;;;;8.67;100.00;100513.31;5049887;28;20017;-53
2022/12/23 08:45:38;;;;;;;39.30;23.98;;;;;;;8.65;100.00;100508.13;5048865;28;20102;-55
2022/12/23 08:48:05;;;;;;;40.00;24.35;;;;;;;8.65;100.00;100508.13;5050027;28;20471;-55
2022/12/23 08:50:36;;;;;;;40.45;23.13;;;;;;;8.64;100.00;100500.28;5046027;28;20544;-52
2022/12/23 08:53:02;;;;;;;41.22;23.45;;;;;;;8.64;100.00;100495.88;5047771;28;20043;-55
2022/12/23 08:55:27;;;;;;;40.72;24.02;;;;;;;8.64;100.00;100498.50;5048187;28;20025;-55
2022/12/23 08:57:53;;;;;;;42.70;23.73;;;;;;;8.64;100.00;100495.88;5048095;28;20029;-56
2022/12/23 09:00:18;;;;;;;42.65;22.23;;;;;;;8.64;100.00;100497.63;5051335;28;20025;-55
2022/12/23 09:02:43;;;;;;;42.60;22.25;;;;;;;8.63;100.00;100493.31;5047437;28;20789;-55
2022/12/23 09:05:09;;;;;;;38.92;22.48;;;;;;;8.61;100.00;100481.97;5034526;28;20022;-56
2022/12/23 09:07:34;;;;;;;32.80;21.02;;;;;;;8.60;100.00;100462.63;5037049;28;20471;-56
2022/12/23 09:09:59;;;;;;;37.22;19.60;;;;;;;8.60;100.00;100457.31;5037594;28;20021;-55
2022/12/23 09:12:25;;;;;;;35.30;20.48;;;;;;;8.60;100.00;100457.31;5033986;28;20506;-55
2022/12/23 09:14:50;;;;;;;32.08;18.50;;;;;;;8.59;100.00;100452.97;5043374;28;20027;-56
2022/12/23 09:17:16;;;;;;;34.58;19.00;;;;;;;8.58;100.00;100453.13;5042667;28;20033;-55
2022/12/23 09:19:41;;;;;;;28.60;18.73;;;;;;;8.58;100.00;100450.47;5046897;28;20109;-56
2022/12/23 09:22:08;;;;;;;37.30;19.25;;;;;;;8.57;100.00;100443.47;5038455;28;20116;-55
2022/12/23 09:24:33;;;;;;;33.35;18.75;;;;;;;8.57;100.00;100441.66;5034646;28;20033;-56
2022/12/23 09:26:58;;;;;;;33.58;18.38;;;;;;;8.57;100.00;100440.81;5052531;28;20426;-56
2022/12/23 09:29:24;;;;;;;35.40;18.90;;;;;;;8.57;100.00;100441.66;5052864;28;20025;-56
2022/12/23 09:31:49;;;;;;;31.75;17.75;;;;;;;8.58;100.00;100443.34;5037270;28;20489;-56
2022/12/23 09:34:14;;;;;;;34.20;17.90;;;;;;;8.56;100.00;100440.00;5034828;28;20379;-56
2022/12/23 09:36:39;;;;;;;35.10;17.65;;;;;;;8.58;100.00;100442.53;5039541;28;20075;-56
2022/12/23 09:39:05;;;;;;;32.08;17.27;;;;;;;8.58;100.00;100437.22;5046009;28;20033;-55
2022/12/23 09:41:41;;;;;;;32.05;17.00;;;;;;;8.58;100.00;100437.22;5040654;28;20029;-53
2022/12/23 09:44:21;;;;;;;25.55;15.73;;;;;;;8.56;100.00;100428.53;5039149;28;20037;-52
2022/12/23 09:46:59;;;;;;;28.92;15.68;;;;;;;8.57;100.00;100425.78;5035815;28;20080;-50
2022/12/23 09:49:25;;;;;;;27.58;15.07;;;;;;;8.55;100.00;100411.00;5038179;28;20104;-53
2022/12/23 09:51:56;;;;;;;30.67;14.75;;;;;;;8.56;100.00;100412.66;5037791;28;20065;-53
2022/12/23 09:54:24;;;;;;;30.60;15.38;;;;;;;8.57;100.00;100409.06;5041732;28;20477;-51
2022/12/23 09:57:02;;;;;;;26.40;15.27;;;;;;;8.59;100.00;100420.38;5036834;28;20037;-52
2022/12/23 09:59:43;;;;;;;34.38;15.38;;;;;;;8.59;100.00;100429.16;5039980;28;20071;-53
2022/12/23 10:02:31;;;;;;;30.83;15.18;;;;;;;8.61;100.00;100423.75;5040176;28;20071;-53
2022/12/23 10:05:01;;;;;;;26.07;14.17;;;;;;;8.61;100.00;100427.25;5036071;28;20046;-54
2022/12/23 10:07:32;;;;;;;31.48;15.27;;;;;;;8.60;100.00;100428.19;5036889;28;20048;-55
2022/12/23 10:10:05;;;;;;;28.17;14.00;;;;;;;8.61;100.00;100418.44;5037765;28;20079;-52
2022/12/23 10:12:38;;;;;;;28.85;15.05;;;;;;;8.62;100.00;100407.75;5041412;28;20025;-54
2022/12/23 10:15:17;;;;;;;28.08;15.43;;;;;;;8.61;100.00;100398.13;5037889;28;20072;-54
2022/12/23 10:17:43;;;;;;;28.52;15.15;;;;;;;8.62;100.00;100391.84;5051475;28;20368;-54
2022/12/23 10:20:23;;;;;;;27.67;15.70;;;;;;;8.62;100.00;100394.50;5051969;28;20078;-51
2022/12/23 10:22:48;;;;;;;29.95;16.17;;;;;;;8.63;100.00;100387.44;5052413;28;20041;-52
2022/12/23 10:25:20;;;;;;;31.20;16.42;;;;;;;8.63;100.00;100369.72;5051389;28;20032;-53
2022/12/23 10:27:46;;;;;;;32.63;16.30;;;;;;;8.64;100.00;100362.63;5052062;28;20061;-54
2022/12/23 10:30:16;;;;;;;25.98;16.30;;;;;;;8.66;100.00;100368.63;5051670;28;20423;-56
2022/12/23 10:33:18;;;;;;;28.35;15.50;;;;;;;8.66;100.00;100361.56;5045037;28;20024;-55
2022/12/23 10:36:08;;;;;;;27.88;15.10;;;;;;;8.69;100.00;100349.88;5052167;28;20052;-53
2022/12/23 10:38:59;;;;;;;28.85;14.98;;;;;;;8.70;100.00;100344.47;5051574;28;20041;-54
2022/12/23 10:41:46;;;;;;;29.58;14.82;;;;;;;8.70;100.00;100341.81;5042093;28;20029;-53
2022/12/23 10:44:24;;;;;;;28.95;15.63;;;;;;;8.73;100.00;100347.84;5038269;28;20029;-56
2022/12/23 10:47:19;;;;;;;30.20;15.15;;;;;;;8.74;100.00;100334.47;5051307;28;20457;-54
2022/12/23 10:50:18;;;;;;;25.98;14.40;;;;;;;8.76;100.00;100324.63;5052141;28;20053;-55
2022/12/23 10:52:45;;;;;;;;;;;;;;;8.80;100.00;100317.28;5051341;28;20066;-53
2022/12/23 10:55:34;;;;;;;22.98;12.82;;;;;;;8.78;100.00;100316.56;5050767;28;19913;-52
2022/12/23 10:58:17;;;;;;;24.48;12.80;;;;;;;8.75;100.00;100306.22;5049273;28;20033;-56
2022/12/23 11:00:49;;;;;;;21.98;12.27;;;;;;;8.75;100.00;100301.75;5051979;28;20540;-54
2022/12/23 11:03:29;;;;;;;25.13;11.80;;;;;;;8.76;100.00;100286.69;5051898;28;20032;-50
2022/12/23 11:05:56;;;;;;;19.77;11.75;;;;;;;8.74;100.00;100278.03;5039714;28;20454;-54
2022/12/23 11:08:23;;;;;;;22.60;11.82;;;;;;;8.75;100.00;100277.94;5050871;28;20075;-55
2022/12/23 11:10:49;;;;;;;19.40;11.18;;;;;;;8.75;100.00;100279.75;5051878;28;20686;-51
2022/12/23 11:13:31;;;;;;;19.95;11.43;;;;;;;8.76;100.00;100276.97;5049635;28;20108;-53
2022/12/23 11:16:25;;;;;;;18.98;11.18;;;;;;;8.79;100.00;100267.94;5050613;28;20049;-54
2022/12/23 11:19:12;;;;;;;19.40;10.80;;;;;;;8.77;100.00;100273.34;5051204;28;20079;-54
2022/12/23 11:21:51;;;;;;;18.52;10.20;;;;;;;8.76;100.00;100273.47;5051337;28;20485;-51
2022/12/23 11:24:18;;;;;;;23.75;11.15;;;;;;;8.74;100.00;100270.94;5052219;28;20044;-52
2022/12/23 11:26:46;;;;;;;20.65;10.63;;;;;;;8.74;100.00;100268.28;5040883;28;20047;-56
2022/12/23 11:29:21;;;;;;;16.70;10.38;;;;;;;8.74;100.00;100256.88;5038592;28;20104;-56
2022/12/23 11:31:46;;;;;;;21.02;10.02;;;;;;;8.73;100.00;100249.88;5046683;28;20076;-50
2022/12/23 11:34:24;;;;;;;21.90;10.20;;;;;;;8.74;100.00;100246.28;5043776;28;20045;-53
2022/12/23 11:36:53;;;;;;;21.83;9.73;;;;;;;8.72;100.00;100245.56;5044736;28;20056;-52
2022/12/23 11:39:25;;;;;;;16.42;8.98;;;;;;;8.72;100.00;100235.78;5045529;28;20471;-53
2022/12/23 11:42:06;;;;;;;20.70;9.73;;;;;;;8.72;100.00;100230.50;5040972;28;20040;-54
2022/12/23 11:44:38;;;;;;;18.40;10.00;;;;;;;8.72;100.00;100219.06;5047029;28;20378;-50
2022/12/23 11:47:22;;;;;;;18.52;9.13;;;;;;;8.73;100.00;100212.81;5046505;28;20139;-50
2022/12/23 11:49:53;;;;;;;24.58;9.85;;;;;;;8.70;100.00;100212.09;5037334;28;20368;-50
2022/12/23 11:52:20;;;;;;;16.27;9.30;;;;;;;8.70;100.00;100200.66;5047705;28;20520;-50
2022/12/23 11:54:53;;;;;;;19.27;8.98;;;;;;;8.71;100.00;100207.66;5046256;28;20078;-50